Time;durP1;ratioP1;P1;durP2;ratioP2;P2;SDS_P1;SDS_P2;PMS_P1;PMS_P2;Temp;Humidity;BMP_temperature;BMP_pressure;BME280_temperature;BME280_humidity;BME280_pressure;Samples;Min_cycle;Max_cycle;Signal;HPM_P1;HPM_P2
2024/02/17 00:00:28;;;;;;;6.10;3.90;;;14.20;99.90;;;;;;5082727;28;20055;-67
2024/02/17 00:03:17;;;;;;;5.05;3.63;;;14.20;99.90;;;;;;5103494;28;20040;-68
2024/02/17 00:06:03;;;;;;;6.72;4.22;;;14.10;99.90;;;;;;5093016;28;20112;-68
2024/02/17 00:08:49;;;;;;;5.93;3.53;;;14.00;99.90;;;;;;5103407;28;20476;-68
2024/02/17 00:11:35;;;;;;;5.60;3.72;;;14.00;99.90;;;;;;5098213;28;20036;-68
2024/02/17 00:14:21;;;;;;;6.07;3.70;;;14.00;99.90;;;;;;5102310;28;20059;-68
2024/02/17 00:17:07;;;;;;;6.18;3.78;;;13.90;99.90;;;;;;5089376;28;20554;-68
2024/02/17 00:19:53;;;;;;;4.90;3.40;;;13.90;99.90;;;;;;5091661;28;20106;-68
2024/02/17 00:22:39;;;;;;;4.85;3.30;;;13.90;99.90;;;;;;5100213;28;20089;-68
2024/02/17 00:25:25;;;;;;;7.85;4.07;;;13.90;99.90;;;;;;5093959;28;20040;-68
2024/02/17 00:28:11;;;;;;;5.07;3.78;;;13.90;99.90;;;;;;5094539;28;20047;-68
2024/02/17 00:30:57;;;;;;;5.25;4.50;;;13.80;99.90;;;;;;5099285;28;20036;-68
2024/02/17 00:33:43;;;;;;;6.47;4.22;;;13.80;99.90;;;;;;5102307;28;20075;-68
2024/02/17 00:36:29;;;;;;;7.03;4.50;;;13.70;99.90;;;;;;5096911;28;20128;-67
2024/02/17 00:39:15;;;;;;;6.22;4.13;;;13.80;99.90;;;;;;5100218;28;20110;-66
2024/02/17 00:42:02;;;;;;;5.70;4.32;;;13.70;99.90;;;;;;5079550;28;21395;-67
2024/02/17 00:44:47;;;;;;;7.18;4.40;;;13.70;99.90;;;;;;5096261;28;20035;-67
2024/02/17 00:47:33;;;;;;;7.75;4.45;;;13.80;99.90;;;;;;5102482;28;20043;-66
2024/02/17 00:50:19;;;;;;;5.43;4.32;;;13.80;99.90;;;;;;5103831;28;20071;-67
2024/02/17 00:53:05;;;;;;;7.07;4.80;;;13.80;99.90;;;;;;5099826;28;20571;-67
2024/02/17 00:55:51;;;;;;;5.40;4.40;;;13.80;99.90;;;;;;5108858;28;20470;-67
2024/02/17 00:58:37;;;;;;;6.35;4.05;;;13.80;99.90;;;;;;5094869;28;20043;-67
2024/02/17 01:01:23;;;;;;;5.88;3.72;;;13.80;99.90;;;;;;5092292;28;20044;-66
2024/02/17 01:04:09;;;;;;;8.00;4.50;;;13.80;99.90;;;;;;5079089;28;20036;-66
2024/02/17 01:06:55;;;;;;;5.90;4.47;;;13.80;99.90;;;;;;5077924;28;20051;-66
2024/02/17 01:09:41;;;;;;;6.00;3.90;;;13.80;99.90;;;;;;5100611;28;20123;-66
2024/02/17 01:12:27;;;;;;;10.73;4.80;;;13.80;99.90;;;;;;5098658;28;20044;-66
2024/02/17 01:15:14;;;;;;;6.18;3.95;;;13.80;99.90;;;;;;5093618;28;20044;-66
2024/02/17 01:17:59;;;;;;;8.80;4.05;;;13.80;99.90;;;;;;5105152;28;20145;-66
2024/02/17 01:20:45;;;;;;;5.20;3.88;;;13.80;99.90;;;;;;5093197;28;20078;-66
2024/02/17 01:23:31;;;;;;;5.03;4.07;;;13.70;99.90;;;;;;5098813;28;20040;-66
2024/02/17 01:26:17;;;;;;;7.45;3.50;;;13.70;99.90;;;;;;5096967;28;20040;-66
2024/02/17 01:29:03;;;;;;;3.85;2.90;;;13.70;99.90;;;;;;5094544;28;20055;-66
2024/02/17 01:31:51;;;;;;;5.15;3.40;;;13.70;99.90;;;;;;5095247;28;20043;-65
2024/02/17 01:34:37;;;;;;;4.85;3.22;;;13.70;99.90;;;;;;5088834;28;20051;-66
2024/02/17 01:37:23;;;;;;;4.13;2.90;;;13.70;99.90;;;;;;5102006;28;20448;-66
2024/02/17 01:40:09;;;;;;;4.10;2.72;;;13.60;99.90;;;;;;5104392;28;20278;-67
2024/02/17 01:42:55;;;;;;;5.22;2.83;;;13.70;99.90;;;;;;5101805;28;20024;-66
2024/02/17 01:45:41;;;;;;;3.63;2.45;;;13.60;99.90;;;;;;5075786;28;20484;-66
2024/02/17 01:48:28;;;;;;;5.30;3.30;;;13.60;99.90;;;;;;5093482;28;20048;-66
2024/02/17 01:51:14;;;;;;;3.50;2.40;;;13.60;99.90;;;;;;5105811;28;20122;-65
2024/02/17 01:54:01;;;;;;;3.13;2.20;;;13.50;99.90;;;;;;5102054;28;20055;-65
2024/02/17 01:56:48;;;;;;;3.13;2.20;;;13.50;99.90;;;;;;5109461;28;20040;-65
2024/02/17 01:59:35;;;;;;;4.65;2.70;;;13.50;99.90;;;;;;5102113;28;20036;-65
2024/02/17 02:02:21;;;;;;;3.33;2.53;;;13.50;99.90;;;;;;5085314;28;20036;-65
2024/02/17 02:05:07;;;;;;;3.97;2.20;;;13.50;99.90;;;;;;5095089;28;20077;-65
2024/02/17 02:07:53;;;;;;;4.82;2.55;;;13.50;99.90;;;;;;5097491;28;20040;-65
2024/02/17 02:10:39;;;;;;;3.83;2.45;;;13.50;99.90;;;;;;5096915;28;20452;-65
2024/02/17 02:13:25;;;;;;;3.30;2.50;;;13.40;99.90;;;;;;5099382;28;20048;-66
2024/02/17 02:16:11;;;;;;;12.13;3.05;;;13.40;99.90;;;;;;5105219;28;20476;-65
2024/02/17 02:18:57;;;;;;;3.70;2.40;;;13.40;99.90;;;;;;5105976;28;20067;-65
2024/02/17 02:21:44;;;;;;;3.58;2.55;;;13.40;99.90;;;;;;5097640;28;20040;-69
2024/02/17 02:24:30;;;;;;;2.95;2.28;;;13.40;99.90;;;;;;5104170;28;20083;-68
2024/02/17 02:27:16;;;;;;;4.22;2.40;;;13.40;99.90;;;;;;5093050;28;20047;-68
2024/02/17 02:30:02;;;;;;;4.18;2.45;;;13.30;99.90;;;;;;5091705;28;20442;-67
2024/02/17 02:32:48;;;;;;;3.75;2.33;;;13.40;99.90;;;;;;5096362;28;20040;-67
2024/02/17 02:35:34;;;;;;;3.13;2.55;;;13.30;99.90;;;;;;5104161;28;20557;-67
2024/02/17 02:38:20;;;;;;;6.90;3.38;;;13.30;99.90;;;;;;5092908;28;20350;-67
2024/02/17 02:41:06;;;;;;;3.97;2.70;;;13.20;99.90;;;;;;5090196;28;20086;-67
2024/02/17 02:43:52;;;;;;;4.00;3.10;;;13.20;99.90;;;;;;5092588;28;21097;-67
2024/02/17 02:46:38;;;;;;;4.30;2.85;;;13.20;99.90;;;;;;5097158;28;20074;-68
2024/02/17 02:49:24;;;;;;;5.00;2.78;;;13.20;99.90;;;;;;5096778;28;20093;-69
2024/02/17 02:52:11;;;;;;;5.63;3.42;;;13.20;99.90;;;;;;5091983;28;20083;-69
2024/02/17 02:54:57;;;;;;;3.83;3.00;;;13.10;99.90;;;;;;5103000;28;20079;-69
2024/02/17 02:57:42;;;;;;;5.70;3.75;;;13.10;99.90;;;;;;5102528;28;20127;-69
2024/02/17 03:00:28;;;;;;;5.82;3.78;;;13.10;99.90;;;;;;5103899;28;20058;-69
2024/02/17 03:03:15;;;;;;;5.47;3.35;;;13.00;99.90;;;;;;5090325;28;20448;-69
2024/02/17 03:06:01;;;;;;;5.05;3.42;;;13.00;99.90;;;;;;5097745;28;20303;-69
2024/02/17 03:08:47;;;;;;;4.88;3.25;;;12.90;99.90;;;;;;5105022;28;20101;-69
2024/02/17 03:11:33;;;;;;;4.85;3.63;;;12.90;99.90;;;;;;5103197;28;20096;-68
2024/02/17 03:14:19;;;;;;;5.25;3.72;;;12.80;99.90;;;;;;5102515;28;20043;-68
2024/02/17 03:17:06;;;;;;;5.15;4.13;;;12.80;99.90;;;;;;5098455;28;20044;-67
2024/02/17 03:19:52;;;;;;;5.75;4.20;;;12.80;99.90;;;;;;5096338;28;20088;-67
2024/02/17 03:22:38;;;;;;;5.80;3.78;;;12.80;99.90;;;;;;5093130;28;20415;-67
2024/02/17 03:25:24;;;;;;;6.03;4.90;;;12.70;99.90;;;;;;5098292;28;20032;-68
2024/02/17 03:28:09;;;;;;;6.05;4.53;;;12.70;99.90;;;;;;5092294;28;20040;-67
2024/02/17 03:30:56;;;;;;;7.35;4.30;;;12.60;99.90;;;;;;5093792;28;20072;-67
2024/02/17 03:33:42;;;;;;;4.88;4.03;;;12.60;99.90;;;;;;5108018;28;20079;-67
2024/02/17 03:36:28;;;;;;;5.07;3.92;;;12.60;99.90;;;;;;5109119;28;20047;-67
2024/02/17 03:39:15;;;;;;;7.47;4.13;;;12.60;99.90;;;;;;5098482;28;20080;-67
2024/02/17 03:42:01;;;;;;;8.00;4.05;;;12.60;99.90;;;;;;5104208;28;20038;-67
2024/02/17 03:44:47;;;;;;;7.28;4.40;;;12.60;99.90;;;;;;5100518;28;20056;-68
2024/02/17 03:47:33;;;;;;;5.47;4.20;;;12.60;99.90;;;;;;5088187;28;20031;-68
2024/02/17 03:50:19;;;;;;;4.80;3.60;;;12.60;99.90;;;;;;5098836;28;20035;-67
2024/02/17 03:53:05;;;;;;;11.07;4.88;;;12.60;99.90;;;;;;5098375;28;20496;-67
2024/02/17 03:55:51;;;;;;;5.90;4.28;;;12.60;99.90;;;;;;5098461;28;20520;-67
2024/02/17 03:58:37;;;;;;;7.07;4.35;;;12.60;99.90;;;;;;5093751;28;20040;-68
2024/02/17 04:01:23;;;;;;;5.95;4.70;;;12.60;99.90;;;;;;5091920;28;20404;-67
2024/02/17 04:04:09;;;;;;;7.78;4.47;;;12.60;99.90;;;;;;5094389;28;20050;-68
2024/02/17 04:06:55;;;;;;;5.78;4.72;;;12.70;99.90;;;;;;5079445;28;20408;-68
2024/02/17 04:09:41;;;;;;;5.88;4.20;;;12.70;99.90;;;;;;5093096;28;20043;-68
2024/02/17 04:12:27;;;;;;;5.97;3.90;;;12.70;99.90;;;;;;5090082;28;20407;-68
2024/02/17 04:15:13;;;;;;;8.65;4.85;;;12.70;99.90;;;;;;5098623;28;20103;-68
2024/02/17 04:18:00;;;;;;;7.93;4.63;;;12.70;99.90;;;;;;5088239;28;20032;-68
2024/02/17 04:20:47;;;;;;;5.95;4.30;;;12.80;99.90;;;;;;5092301;28;20418;-67
2024/02/17 04:23:34;;;;;;;7.55;5.05;;;12.80;99.90;;;;;;5090196;28;20439;-67
2024/02/17 04:26:19;;;;;;;6.20;4.75;;;12.80;99.90;;;;;;5096361;28;20047;-68
2024/02/17 04:29:05;;;;;;;6.43;4.57;;;12.80;99.90;;;;;;5107381;28;20036;-68
2024/02/17 04:31:51;;;;;;;5.82;4.40;;;12.80;99.90;;;;;;5099017;28;20079;-68
2024/02/17 04:34:37;;;;;;;6.38;4.45;;;12.80;99.90;;;;;;5088891;28;20109;-68
2024/02/17 04:37:23;;;;;;;8.07;5.00;;;12.80;99.90;;;;;;5095373;28;20044;-68
2024/02/17 04:40:10;;;;;;;6.13;4.43;;;12.70;99.90;;;;;;5101717;28;20047;-69
2024/02/17 04:42:56;;;;;;;8.57;4.82;;;12.70;99.90;;;;;;5093498;28;20048;-67
2024/02/17 04:45:42;;;;;;;6.63;5.13;;;12.70;99.90;;;;;;5096172;28;20404;-67
2024/02/17 04:48:28;;;;;;;6.88;5.13;;;12.70;99.90;;;;;;5104567;28;20075;-67
2024/02/17 04:51:14;;;;;;;7.65;4.40;;;12.70;99.90;;;;;;5095799;28;20134;-68
2024/02/17 04:54:00;;;;;;;6.28;4.72;;;12.70;99.90;;;;;;5089579;28;20080;-67
2024/02/17 04:56:46;;;;;;;7.57;4.75;;;12.70;99.90;;;;;;5095845;28;20075;-67
2024/02/17 04:59:32;;;;;;;6.57;5.18;;;12.70;99.90;;;;;;5094448;28;20066;-67
2024/02/17 05:02:18;;;;;;;7.03;5.20;;;12.70;99.90;;;;;;5094140;28;20080;-67
2024/02/17 05:05:04;;;;;;;6.70;5.15;;;12.70;99.90;;;;;;5099175;28;20036;-67
2024/02/17 05:07:50;;;;;;;9.60;5.63;;;12.70;99.90;;;;;;5097806;28;20503;-68
2024/02/17 05:10:38;;;;;;;7.43;4.75;;;12.70;99.90;;;;;;5096262;28;20047;-67
2024/02/17 05:13:24;;;;;;;6.63;4.78;;;12.60;99.90;;;;;;5098128;28;20048;-67
2024/02/17 05:16:10;;;;;;;6.55;4.88;;;12.60;99.90;;;;;;5101841;28;20154;-68
2024/02/17 05:18:55;;;;;;;6.97;4.85;;;12.60;99.90;;;;;;5098483;28;20048;-67
2024/02/17 05:21:44;;;;;;;9.40;5.35;;;12.60;99.90;;;;;;5095300;28;20042;-67
2024/02/17 05:24:33;;;;;;;6.82;4.32;;;12.60;99.90;;;;;;5096441;28;20044;-68
2024/02/17 05:27:19;;;;;;;6.93;4.85;;;12.60;99.90;;;;;;5101478;28;20081;-67
2024/02/17 05:30:06;;;;;;;6.63;4.65;;;12.60;99.90;;;;;;5094410;28;20526;-67
2024/02/17 05:32:52;;;;;;;8.10;5.10;;;12.60;99.90;;;;;;5099281;28;20542;-67
2024/02/17 05:35:38;;;;;;;8.63;5.90;;;12.50;99.90;;;;;;5096217;28;20058;-68
2024/02/17 05:38:24;;;;;;;7.38;5.30;;;12.50;99.90;;;;;;5097816;28;20047;-68
2024/02/17 05:41:10;;;;;;;6.00;4.75;;;12.50;99.90;;;;;;5099527;28;20164;-68
2024/02/17 05:43:56;;;;;;;7.10;4.88;;;12.50;99.90;;;;;;5100984;28;20062;-68
2024/02/17 05:46:42;;;;;;;7.32;4.90;;;12.50;99.90;;;;;;5101080;28;20036;-69
2024/02/17 05:49:28;;;;;;;6.55;4.40;;;12.50;99.90;;;;;;5099667;28;20044;-69
2024/02/17 05:52:14;;;;;;;6.20;4.43;;;12.40;99.90;;;;;;5102701;28;20040;-68
2024/02/17 05:55:01;;;;;;;5.68;4.60;;;12.40;99.90;;;;;;5094984;28;20043;-68
2024/02/17 05:57:47;;;;;;;7.60;4.72;;;12.30;99.90;;;;;;5100996;28;20031;-68
2024/02/17 06:00:33;;;;;;;6.22;3.90;;;12.30;99.90;;;;;;5100163;28;20640;-68
2024/02/17 06:03:19;;;;;;;7.40;4.82;;;12.30;99.90;;;;;;5104696;28;20044;-68
2024/02/17 06:06:05;;;;;;;6.32;4.30;;;12.20;99.90;;;;;;5102721;28;20046;-68
2024/02/17 06:08:51;;;;;;;6.03;4.60;;;12.20;99.90;;;;;;5090996;28;20157;-68
2024/02/17 06:11:37;;;;;;;8.07;4.75;;;12.10;99.90;;;;;;5098514;28;20075;-68
2024/02/17 06:14:23;;;;;;;5.82;4.22;;;12.10;99.90;;;;;;5092969;28;20419;-68
2024/02/17 06:17:10;;;;;;;6.13;4.25;;;12.00;99.90;;;;;;5093033;28;20040;-69
2024/02/17 06:23:00;;;;;;;8.43;5.05;;;12.00;99.90;;;;;;5095531;28;20062;-68
2024/02/17 06:25:46;;;;;;;8.30;4.68;;;12.00;99.90;;;;;;5092373;28;20074;-68
2024/02/17 06:28:32;;;;;;;5.90;4.18;;;12.00;99.90;;;;;;5077791;28;20111;-68
2024/02/17 06:31:19;;;;;;;5.97;4.40;;;12.00;99.90;;;;;;5100523;28;20054;-67
2024/02/17 06:34:05;;;;;;;8.25;4.60;;;12.00;99.90;;;;;;5103834;28;20051;-67
2024/02/17 06:36:51;;;;;;;8.85;4.50;;;12.00;99.90;;;;;;5090366;28;20085;-67
2024/02/17 06:39:36;;;;;;;8.80;4.55;;;12.00;99.90;;;;;;5076838;28;20044;-68
2024/02/17 06:42:22;;;;;;;9.13;4.95;;;11.90;99.90;;;;;;5089885;28;20036;-68
2024/02/17 06:45:12;;;;;;;7.38;4.95;;;11.90;99.90;;;;;;5086403;28;20040;-68
2024/02/17 06:47:58;;;;;;;9.07;4.63;;;11.90;99.90;;;;;;5102296;28;20055;-68
2024/02/17 06:50:44;;;;;;;7.43;4.40;;;11.90;99.90;;;;;;5100330;28;20097;-68
2024/02/17 06:53:30;;;;;;;9.20;4.70;;;11.90;99.90;;;;;;5097174;28;20135;-69
2024/02/17 06:56:16;;;;;;;8.45;4.32;;;11.90;99.90;;;;;;5096348;28;20096;-69
2024/02/17 06:59:02;;;;;;;4.22;2.92;;;11.90;99.90;;;;;;5091399;28;20415;-69
2024/02/17 07:01:48;;;;;;;7.75;4.07;;;11.90;99.90;;;;;;5091193;28;20047;-70
2024/02/17 07:04:34;;;;;;;7.93;4.07;;;11.90;99.90;;;;;;5076436;28;20483;-69
2024/02/17 07:07:23;;;;;;;7.43;4.35;;;11.90;99.90;;;;;;5098086;28;20032;-70
2024/02/17 07:10:09;;;;;;;7.20;5.22;;;11.90;99.90;;;;;;5095041;28;20529;-70
2024/02/17 07:12:55;;;;;;;8.65;4.97;;;11.90;99.90;;;;;;5088644;28;20036;-70
2024/02/17 07:15:42;;;;;;;10.05;4.65;;;12.00;99.90;;;;;;5098697;28;20051;-72
2024/02/17 07:18:31;;;;;;;6.60;4.13;;;12.00;99.90;;;;;;5095364;28;20073;-71
2024/02/17 07:21:18;;;;;;;7.03;4.82;;;12.00;99.90;;;;;;5101125;27;20467;-72
2024/02/17 07:24:05;;;;;;;7.75;3.72;;;12.00;99.90;;;;;;5095908;28;20048;-72
2024/02/17 07:26:52;;;;;;;5.70;4.22;;;12.00;99.90;;;;;;5103400;28;20428;-72
2024/02/17 07:29:39;;;;;;;5.65;3.13;;;12.10;99.90;;;;;;5097169;28;20543;-71
2024/02/17 07:32:25;;;;;;;5.45;3.90;;;12.10;99.90;;;;;;5079778;28;20044;-69
2024/02/17 07:35:11;;;;;;;6.90;3.80;;;12.10;99.90;;;;;;5093118;28;20052;-69
2024/02/17 07:37:57;;;;;;;5.68;3.53;;;12.10;99.90;;;;;;5094582;28;20441;-69
2024/02/17 07:40:43;;;;;;;7.68;3.92;;;12.10;99.90;;;;;;5102013;28;20118;-69
2024/02/17 07:43:28;;;;;;;6.03;4.35;;;12.10;99.90;;;;;;5090088;28;20055;-69
2024/02/17 07:46:14;;;;;;;5.32;3.38;;;12.20;99.90;;;;;;5103898;28;20047;-69
2024/02/17 07:49:00;;;;;;;6.38;3.95;;;12.20;99.90;;;;;;5100795;28;20039;-69
2024/02/17 07:51:46;;;;;;;7.45;3.85;;;12.20;99.90;;;;;;5090140;28;20047;-69
2024/02/17 07:54:32;;;;;;;5.53;4.25;;;12.20;99.90;;;;;;5091395;28;20052;-69
2024/02/17 07:57:18;;;;;;;5.72;3.30;;;12.20;99.90;;;;;;5094458;28;20040;-69
2024/02/17 08:00:05;;;;;;;4.60;3.13;;;12.20;99.90;;;;;;5086473;28;20035;-69
2024/02/17 08:02:51;;;;;;;6.05;3.50;;;12.30;99.90;;;;;;5086635;28;20488;-65
2024/02/17 08:05:37;;;;;;;7.53;3.50;;;12.30;99.90;;;;;;5095981;28;20083;-69
2024/02/17 08:08:24;;;;;;;4.45;2.92;;;12.30;99.90;;;;;;5092343;28;20047;-68
2024/02/17 08:11:10;;;;;;;4.97;3.25;;;12.30;99.90;;;;;;5094728;28;20048;-69
2024/02/17 08:13:57;;;;;;;6.35;2.90;;;12.30;99.90;;;;;;5092792;28;20139;-68
2024/02/17 08:16:43;;;;;;;5.28;3.30;;;12.30;99.90;;;;;;5098075;28;20071;-68
2024/02/17 08:19:29;;;;;;;3.97;2.85;;;12.30;99.90;;;;;;5105122;28;20069;-68
2024/02/17 08:22:15;;;;;;;4.55;2.80;;;12.30;99.90;;;;;;5093821;28;20086;-68
2024/02/17 08:25:05;;;;;;;4.15;2.50;;;12.30;99.90;;;;;;5088869;28;20036;-68
2024/02/17 08:27:51;;;;;;;4.95;2.92;;;12.20;99.90;;;;;;5089661;28;20554;-68
2024/02/17 08:30:37;;;;;;;3.72;2.42;;;12.30;99.90;;;;;;5093968;28;20042;-68
2024/02/17 08:33:23;;;;;;;4.10;2.50;;;12.30;99.90;;;;;;5100841;28;20134;-68
2024/02/17 08:36:09;;;;;;;4.35;2.67;;;12.30;99.90;;;;;;5098834;28;20406;-68
2024/02/17 08:38:55;;;;;;;4.18;2.40;;;12.30;99.90;;;;;;5090203;28;20047;-68
2024/02/17 08:41:41;;;;;;;4.28;2.47;;;12.30;99.90;;;;;;5096008;28;20414;-68
2024/02/17 08:44:27;;;;;;;3.75;2.00;;;12.30;99.90;;;;;;5096905;28;20178;-68
2024/02/17 08:47:13;;;;;;;5.10;2.72;;;12.30;99.90;;;;;;5091898;28;20177;-68
2024/02/17 08:49:59;;;;;;;4.03;2.00;;;12.30;99.90;;;;;;5111162;28;20145;-68
2024/02/17 08:52:45;;;;;;;4.63;2.40;;;12.40;99.90;;;;;;5095591;28;20085;-68
2024/02/17 08:55:30;;;;;;;7.07;2.47;;;12.40;99.90;;;;;;5104869;28;20063;-68
2024/02/17 08:58:16;;;;;;;3.10;2.00;;;12.40;99.90;;;;;;5097217;28;20036;-69
2024/02/17 09:01:02;;;;;;;4.72;2.30;;;12.40;99.90;;;;;;5096475;28;20047;-68
2024/02/17 09:03:48;;;;;;;4.45;1.90;;;12.30;99.90;;;;;;5095356;28;20127;-68
2024/02/17 09:06:34;;;;;;;4.38;1.80;;;12.30;99.90;;;;;;5107174;28;20043;-68
2024/02/17 09:09:20;;;;;;;3.85;1.83;;;12.20;99.90;;;;;;5095005;28;20043;-69
2024/02/17 09:12:07;;;;;;;2.42;1.80;;;12.10;99.90;;;;;;5092585;28;20039;-68
2024/02/17 09:14:53;;;;;;;3.00;1.80;;;12.10;99.90;;;;;;5100845;27;20385;-67
2024/02/17 09:17:39;;;;;;;2.22;1.40;;;12.10;99.90;;;;;;5104315;28;20071;-68
2024/02/17 09:20:25;;;;;;;4.03;1.73;;;12.10;99.90;;;;;;5090413;28;20067;-67
2024/02/17 09:23:11;;;;;;;2.50;1.40;;;12.10;99.90;;;;;;5094278;28;20040;-68
2024/02/17 09:25:57;;;;;;;8.55;1.27;;;12.10;99.90;;;;;;5097833;28;20258;-68
2024/02/17 09:28:43;;;;;;;2.15;1.00;;;12.10;99.90;;;;;;5097605;28;20119;-68
2024/02/17 09:31:29;;;;;;;1.55;1.10;;;12.10;99.90;;;;;;5097329;28;20044;-68
2024/02/17 09:34:15;;;;;;;2.53;0.90;;;12.10;99.90;;;;;;5101707;28;20048;-68
2024/02/17 09:37:00;;;;;;;1.88;0.90;;;12.20;99.90;;;;;;5097714;28;20051;-68
2024/02/17 09:39:46;;;;;;;1.60;1.00;;;12.10;99.90;;;;;;5100571;28;20043;-69
2024/02/17 09:42:32;;;;;;;1.15;0.88;;;12.10;99.90;;;;;;5094011;28;20052;-68
2024/02/17 09:45:18;;;;;;;1.25;0.70;;;12.10;99.90;;;;;;5103290;28;20475;-68
2024/02/17 09:48:06;;;;;;;1.70;0.90;;;12.10;99.90;;;;;;5091297;28;20044;-68
2024/02/17 09:50:53;;;;;;;1.33;0.95;;;12.00;99.90;;;;;;5102906;28;20031;-68
2024/02/17 09:53:40;;;;;;;2.85;1.10;;;11.90;99.90;;;;;;5100568;28;20044;-68
2024/02/17 09:56:27;;;;;;;1.17;0.75;;;12.00;99.90;;;;;;5098073;28;20043;-68
2024/02/17 09:59:13;;;;;;;1.77;1.08;;;12.10;99.90;;;;;;5097428;28;20036;-68
2024/02/17 10:01:59;;;;;;;0.68;0.65;;;12.10;99.90;;;;;;5095941;28;20051;-68
2024/02/17 10:04:57;;;;;;;1.63;0.90;;;12.10;99.90;;;;;;5088425;28;20043;-68
2024/02/17 10:07:48;;;;;;;1.88;1.10;;;12.20;99.90;;;;;;5097689;28;20415;-68
2024/02/17 10:10:35;;;;;;;0.70;0.70;;;12.20;99.90;;;;;;5097050;28;21147;-68
2024/02/17 10:13:22;;;;;;;1.35;0.93;;;12.20;99.90;;;;;;5091867;28;20150;-68
2024/02/17 10:16:13;;;;;;;1.15;0.80;;;12.20;99.80;;;;;;5091506;28;20044;-68
2024/02/17 10:19:03;;;;;;;3.38;1.27;;;12.30;99.60;;;;;;5082815;28;20132;-68
2024/02/17 10:21:49;;;;;;;1.67;0.80;;;12.30;99.30;;;;;;5080081;28;20032;-68
2024/02/17 10:24:35;;;;;;;0.90;0.50;;;12.30;99.30;;;;;;5105803;28;20046;-68
2024/02/17 10:27:21;;;;;;;0.88;0.65;;;12.30;98.80;;;;;;5096494;28;20066;-69
2024/02/17 10:30:17;;;;;;;0.80;0.50;;;12.30;98.30;;;;;;5091305;28;20079;-69
2024/02/17 10:33:15;;;;;;;0.70;0.60;;;12.20;97.60;;;;;;5101823;28;20484;-69
2024/02/17 10:36:01;;;;;;;2.53;1.05;;;12.20;98.20;;;;;;5094504;28;20140;-69
2024/02/17 10:38:48;;;;;;;1.25;0.80;;;12.20;97.90;;;;;;5096882;28;20094;-69
2024/02/17 10:41:35;;;;;;;1.20;0.80;;;12.20;97.90;;;;;;5100015;28;20051;-69
2024/02/17 10:44:23;;;;;;;0.88;0.82;;;12.20;97.50;;;;;;5104460;28;20039;-69
2024/02/17 10:47:09;;;;;;;1.15;0.90;;;12.20;97.70;;;;;;5078084;28;20066;-69
2024/02/17 10:50:04;;;;;;;1.67;0.95;;;12.20;97.70;;;;;;5101341;28;20042;-70
2024/02/17 10:53:04;;;;;;;1.13;0.88;;;12.30;97.60;;;;;;5102922;27;20036;-70
2024/02/17 10:55:54;;;;;;;1.42;0.90;;;12.20;96.70;;;;;;5100866;27;20055;-70
2024/02/17 10:58:41;;;;;;;2.92;0.90;;;12.10;96.70;;;;;;5075637;28;20036;-70
2024/02/17 11:01:29;;;;;;;1.08;0.95;;;12.10;96.50;;;;;;5095545;28;20044;-71
2024/02/17 11:04:15;;;;;;;1.52;0.90;;;12.10;96.20;;;;;;5109382;27;20499;-69
2024/02/17 11:07:01;;;;;;;1.38;0.80;;;11.90;96.10;;;;;;5106584;28;20155;-67
2024/02/17 11:09:47;;;;;;;1.23;1.10;;;11.90;96.10;;;;;;5101511;27;20072;-68
2024/02/17 11:12:38;;;;;;;1.20;1.00;;;11.90;96.30;;;;;;5102601;28;20048;-68
2024/02/17 11:15:24;;;;;;;1.08;0.98;;;11.90;96.40;;;;;;5102549;28;20050;-68
2024/02/17 11:18:10;;;;;;;1.83;1.00;;;12.00;96.30;;;;;;5079872;28;20040;-69
2024/02/17 11:20:56;;;;;;;1.23;0.85;;;12.00;96.30;;;;;;5088646;28;20055;-68
2024/02/17 11:23:42;;;;;;;2.35;0.82;;;12.10;96.30;;;;;;5098159;28;20062;-68
2024/02/17 11:26:31;;;;;;;0.75;0.70;;;12.10;95.60;;;;;;5097140;28;20407;-68
2024/02/17 11:29:33;;;;;;;2.58;1.63;;;12.10;95.70;;;;;;5102152;27;20050;-68
2024/02/17 11:32:20;;;;;;;1.88;1.27;;;12.10;94.90;;;;;;5095561;28;20078;-67
2024/02/17 11:35:09;;;;;;;1.42;1.05;;;12.10;95.30;;;;;;5099471;28;20189;-68
2024/02/17 11:37:59;;;;;;;2.42;1.20;;;12.10;95.40;;;;;;5093959;28;20059;-69
2024/02/17 11:40:45;;;;;;;4.30;1.40;;;12.00;95.10;;;;;;5102319;28;20070;-69
2024/02/17 11:43:36;;;;;;;2.40;1.38;;;11.90;95.40;;;;;;5103898;28;20129;-69
2024/02/17 11:46:23;;;;;;;2.97;1.50;;;11.90;95.70;;;;;;5093954;28;20048;-69
2024/02/17 11:49:40;;;;;;;2.78;2.00;;;12.00;95.90;;;;;;5095466;28;20056;-68
2024/02/17 11:52:27;;;;;;;2.72;1.30;;;12.10;95.90;;;;;;5094816;28;20192;-69
2024/02/17 11:55:13;;;;;;;3.20;1.42;;;12.10;95.30;;;;;;5099629;28;20100;-69
2024/02/17 11:57:59;;;;;;;3.08;1.20;;;12.00;95.30;;;;;;5079758;28;20047;-69
2024/02/17 12:00:48;;;;;;;3.33;1.20;;;12.00;95.30;;;;;;5096223;28;20035;-68
2024/02/17 12:03:34;;;;;;;2.97;1.50;;;11.90;95.30;;;;;;5108756;28;20079;-68
2024/02/17 12:06:20;;;;;;;3.63;1.90;;;11.90;95.30;;;;;;5087910;28;20036;-69
2024/02/17 12:09:08;;;;;;;1.35;1.00;;;11.90;95.40;;;;;;5101894;28;20072;-69
2024/02/17 12:11:54;;;;;;;1.77;1.00;;;11.90;95.40;;;;;;5101389;28;20270;-69
2024/02/17 12:14:40;;;;;;;3.40;1.45;;;11.90;95.30;;;;;;5091884;28;20547;-68
2024/02/17 12:17:25;;;;;;;5.30;1.60;;;12.00;95.00;;;;;;5096884;28;20039;-68
2024/02/17 12:20:18;;;;;;;4.13;1.52;;;11.90;94.90;;;;;;5094402;28;20047;-68
2024/02/17 12:23:08;;;;;;;5.25;1.38;;;11.90;94.80;;;;;;5098739;28;20050;-68
2024/02/17 12:25:55;;;;;;;2.88;1.63;;;12.00;94.90;;;;;;5077356;28;20072;-69
2024/02/17 12:28:41;;;;;;;4.97;1.63;;;12.00;94.70;;;;;;5103694;28;20058;-68
2024/02/17 12:31:27;;;;;;;6.57;2.15;;;12.00;94.80;;;;;;5089130;28;20059;-68
2024/02/17 12:34:25;;;;;;;3.17;1.77;;;12.10;94.70;;;;;;5106456;28;20051;-68
2024/02/17 12:37:15;;;;;;;4.28;1.60;;;12.00;93.90;;;;;;5098190;28;20449;-69
2024/02/17 12:40:10;;;;;;;5.03;1.73;;;11.90;94.20;;;;;;5090366;28;20119;-69
2024/02/17 12:42:56;;;;;;;6.35;1.55;;;11.90;94.40;;;;;;5102507;28;20555;-69
2024/02/17 12:45:42;;;;;;;6.63;2.00;;;11.90;94.40;;;;;;5091664;28;20925;-69
2024/02/17 12:48:28;;;;;;;4.85;1.73;;;11.90;94.20;;;;;;5092985;28;20470;-69
2024/02/17 12:51:19;;;;;;;5.35;1.50;;;11.80;94.20;;;;;;5102901;28;20115;-69
2024/02/17 12:54:04;;;;;;;5.32;1.67;;;11.80;93.90;;;;;;5083861;28;20055;-69
2024/02/17 12:56:50;;;;;;;5.60;1.80;;;11.70;94.10;;;;;;5096791;28;20035;-69
2024/02/17 12:59:37;;;;;;;6.47;2.13;;;11.70;94.10;;;;;;5090396;28;20040;-69
2024/02/17 13:02:23;;;;;;;10.25;2.47;;;11.60;94.30;;;;;;5091765;28;20404;-69
2024/02/17 13:05:09;;;;;;;5.97;2.00;;;11.60;94.20;;;;;;5100352;28;20401;-69
2024/02/17 13:07:55;;;;;;;5.53;1.67;;;11.60;94.20;;;;;;5094131;28;20051;-69
2024/02/17 13:10:42;;;;;;;4.25;1.48;;;11.50;94.20;;;;;;5093397;28;20101;-69
2024/02/17 13:13:28;;;;;;;7.45;2.63;;;11.60;94.40;;;;;;5078357;28;20111;-69
2024/02/17 13:16:14;;;;;;;4.72;1.77;;;11.70;94.40;;;;;;5095197;28;20083;-69
2024/02/17 13:19:00;;;;;;;4.78;1.83;;;11.70;94.40;;;;;;5079170;28;20036;-69
2024/02/17 13:21:46;;;;;;;7.28;2.75;;;11.70;94.40;;;;;;5100858;28;20040;-70
2024/02/17 13:24:32;;;;;;;5.35;1.88;;;11.70;94.40;;;;;;5092539;28;20043;-69
2024/02/17 13:27:18;;;;;;;4.47;2.05;;;11.60;94.00;;;;;;5090322;28;20058;-69
2024/02/17 13:30:09;;;;;;;5.50;1.83;;;11.60;94.30;;;;;;5098153;28;20468;-69
2024/02/17 13:32:55;;;;;;;7.20;2.03;;;11.50;94.30;;;;;;5088857;28;20043;-69
2024/02/17 13:35:42;;;;;;;7.85;2.65;;;11.40;94.20;;;;;;5100263;28;20047;-69
2024/02/17 13:38:28;;;;;;;8.95;2.03;;;11.40;94.30;;;;;;5095600;27;20031;-69
2024/02/17 13:41:15;;;;;;;4.15;1.60;;;11.30;94.30;;;;;;5091365;28;20404;-70
2024/02/17 13:44:02;;;;;;;4.90;2.47;;;11.20;94.50;;;;;;5092420;28;20055;-69
2024/02/17 13:46:48;;;;;;;8.77;1.85;;;11.30;94.30;;;;;;5102339;28;20055;-70
2024/02/17 13:49:34;;;;;;;4.30;1.65;;;11.20;94.30;;;;;;5100462;28;20101;-69
2024/02/17 13:52:20;;;;;;;8.52;2.60;;;11.20;94.30;;;;;;5100306;28;20047;-70
2024/02/17 13:55:06;;;;;;;5.80;2.65;;;11.10;94.30;;;;;;5104041;28;20096;-69
2024/02/17 13:57:52;;;;;;;5.32;2.10;;;11.00;94.40;;;;;;5098073;28;20070;-69
2024/02/17 14:00:38;;;;;;;6.05;2.35;;;11.00;94.50;;;;;;5100249;28;20051;-69
2024/02/17 14:03:25;;;;;;;5.85;2.50;;;11.00;94.60;;;;;;5094447;28;20089;-70
2024/02/17 14:06:12;;;;;;;11.63;2.97;;;11.00;94.60;;;;;;5107365;28;20122;-70
2024/02/17 14:08:58;;;;;;;6.00;2.67;;;11.00;94.60;;;;;;5095281;28;20036;-69
2024/02/17 14:11:44;;;;;;;7.72;2.90;;;11.00;94.50;;;;;;5101575;28;20044;-69
2024/02/17 14:14:30;;;;;;;7.05;2.65;;;11.00;94.70;;;;;;5099145;28;20063;-69
2024/02/17 14:17:16;;;;;;;7.10;2.47;;;11.00;94.70;;;;;;5096254;28;20369;-70
2024/02/17 14:20:03;;;;;;;8.52;2.92;;;11.00;94.90;;;;;;5099050;28;20047;-69
2024/02/17 14:22:49;;;;;;;7.95;2.20;;;11.10;94.80;;;;;;5100237;28;20048;-69
2024/02/17 14:25:38;;;;;;;6.13;2.55;;;11.10;94.70;;;;;;5097186;28;20048;-69
2024/02/17 14:28:24;;;;;;;6.90;2.75;;;11.10;94.80;;;;;;5111944;27;20111;-69